createdAt,value
2024-01-27T00:02:37.256Z,35.90
2024-01-27T00:05:38.741Z,33.50
2024-01-27T00:08:39.933Z,38.10
2024-01-27T00:11:40.881Z,40.40
2024-01-27T00:14:41.872Z,27.80
2024-01-27T00:17:43.019Z,31.10
2024-01-27T00:20:44.125Z,27.00
2024-01-27T00:23:45.211Z,36.60
2024-01-27T00:26:46.510Z,29.70
2024-01-27T00:29:47.546Z,51.70
2024-01-27T00:32:48.603Z,27.70
2024-01-27T00:35:49.760Z,31.10
2024-01-27T00:38:50.779Z,29.60
2024-01-27T00:41:53.294Z,25.70
2024-01-27T00:44:54.314Z,27.90
2024-01-27T00:47:55.731Z,24.80
2024-01-27T00:50:56.752Z,27.80
2024-01-27T00:53:57.793Z,27.90
2024-01-27T00:56:58.736Z,29.10
2024-01-27T00:59:59.816Z,27.90
2024-01-27T01:03:00.998Z,24.30
2024-01-27T01:06:02.030Z,24.30
2024-01-27T01:09:03.094Z,28.20
2024-01-27T01:12:04.887Z,28.50
2024-01-27T01:15:06.541Z,23.40
2024-01-27T01:18:07.667Z,24.10
2024-01-27T01:21:08.757Z,29.20
2024-01-27T01:24:09.795Z,40.80
2024-01-27T01:30:51.669Z,37.40
2024-01-27T01:33:52.736Z,27.80
2024-01-27T01:36:54.948Z,33.30
2024-01-27T01:39:56.125Z,27.70
2024-01-27T01:42:59.797Z,27.10
2024-01-27T01:46:00.957Z,26.40
2024-01-27T01:49:02.765Z,33.50
2024-01-27T01:52:04.571Z,25.40
2024-01-27T01:55:06.161Z,25.70
2024-01-27T01:58:07.193Z,24.00
2024-01-27T02:01:08.762Z,22.60
2024-01-27T02:04:09.789Z,23.10
2024-01-27T02:07:10.939Z,19.60
2024-01-27T02:10:16.742Z,21.70
2024-01-27T02:13:21.995Z,19.40
2024-01-27T02:16:23.031Z,19.80
2024-01-27T02:19:25.057Z,16.20
2024-01-27T02:22:26.243Z,16.40
2024-01-27T02:25:27.222Z,16.70
2024-01-27T02:28:28.192Z,15.00
2024-01-27T02:31:29.380Z,16.40
2024-01-27T02:34:30.551Z,16.00
2024-01-27T02:37:31.905Z,12.10
2024-01-27T02:40:32.874Z,16.00
2024-01-27T02:43:33.862Z,17.20
2024-01-27T02:46:35.037Z,12.70
2024-01-27T02:49:36.439Z,12.90
2024-01-27T02:52:37.782Z,15.10
2024-01-27T02:55:38.755Z,12.80
2024-01-27T02:58:41.750Z,15.00
2024-01-27T03:01:42.750Z,13.00
2024-01-27T03:04:43.803Z,16.20
2024-01-27T03:07:44.992Z,10.10
2024-01-27T03:10:46.223Z,13.20
2024-01-27T03:13:47.199Z,11.50
2024-01-27T03:16:48.109Z,9.80
2024-01-27T03:19:49.913Z,12.60
2024-01-27T03:22:51.017Z,11.00
2024-01-27T03:25:52.145Z,10.80
2024-01-27T03:28:53.144Z,9.80
2024-01-27T03:31:54.093Z,11.50
2024-01-27T03:34:55.080Z,14.20
2024-01-27T03:37:56.284Z,11.30
2024-01-27T03:40:59.167Z,10.90
2024-01-27T03:44:00.114Z,10.30
2024-01-27T03:47:01.093Z,10.40
2024-01-27T03:50:02.153Z,12.30
2024-01-27T03:53:03.223Z,12.00
2024-01-27T03:56:05.289Z,9.70
2024-01-27T03:59:07.267Z,9.30
2024-01-27T04:02:08.312Z,18.30
2024-01-27T04:05:09.285Z,11.80
2024-01-27T04:08:10.283Z,11.10
2024-01-27T04:11:20.438Z,11.50
2024-01-27T04:14:21.329Z,12.80
2024-01-27T04:17:23.262Z,11.40
2024-01-27T04:20:24.459Z,11.90
2024-01-27T04:23:25.386Z,13.50
2024-01-27T04:26:26.505Z,12.80
2024-01-27T04:29:27.433Z,7.90
2024-01-27T04:32:28.654Z,8.30
2024-01-27T04:35:29.638Z,13.70
2024-01-27T04:38:30.627Z,13.20
2024-01-27T04:41:31.843Z,10.00
2024-01-27T04:44:33.943Z,11.20
2024-01-27T04:47:35.104Z,9.40
2024-01-27T04:50:36.449Z,11.80
2024-01-27T04:53:37.413Z,14.80
2024-01-27T04:56:38.902Z,16.60
2024-01-27T04:59:40.077Z,14.00
2024-01-27T05:02:42.347Z,17.00
2024-01-27T05:05:43.970Z,13.30
2024-01-27T05:08:45.531Z,12.00
2024-01-27T05:11:46.587Z,15.30
2024-01-27T05:14:47.634Z,17.50
2024-01-27T05:17:48.697Z,12.80
2024-01-27T05:20:50.289Z,11.70
2024-01-27T05:23:51.299Z,13.30
2024-01-27T05:26:52.467Z,12.40
2024-01-27T05:29:53.444Z,13.00
2024-01-27T05:32:54.545Z,9.20
2024-01-27T05:35:55.629Z,15.90
2024-01-27T05:38:56.670Z,11.30
2024-01-27T05:41:57.655Z,13.10
2024-01-27T05:44:58.772Z,13.90
2024-01-27T05:47:59.947Z,11.00
2024-01-27T05:51:02.624Z,15.70
2024-01-27T05:54:03.953Z,13.20
2024-01-27T05:57:05.413Z,9.80
2024-01-27T06:00:07.018Z,8.60
2024-01-27T06:03:08.064Z,12.60
2024-01-27T06:06:09.320Z,14.50
2024-01-27T06:09:12.175Z,11.20
2024-01-27T06:12:13.384Z,10.70
2024-01-27T06:15:16.178Z,12.50
2024-01-27T06:18:17.270Z,10.60
2024-01-27T06:21:18.753Z,10.20
2024-01-27T06:24:19.838Z,12.20
2024-01-27T06:27:20.937Z,12.00
2024-01-27T06:30:21.932Z,21.00
2024-01-27T06:33:23.018Z,15.00
2024-01-27T06:36:25.289Z,16.60
2024-01-27T06:39:26.595Z,11.80
2024-01-27T06:42:27.742Z,11.20
2024-01-27T06:45:28.749Z,10.40
2024-01-27T06:48:29.852Z,17.70
2024-01-27T06:51:30.924Z,16.80
2024-01-27T06:54:32.122Z,14.10
2024-01-27T06:57:33.557Z,17.00
2024-01-27T07:00:34.631Z,21.20
2024-01-27T07:03:35.676Z,27.70
2024-01-27T07:06:36.748Z,26.00
2024-01-27T07:09:37.780Z,27.80
2024-01-27T07:12:39.188Z,19.40
2024-01-27T07:15:40.197Z,28.10
2024-01-27T07:18:41.511Z,16.90
2024-01-27T07:21:42.743Z,24.80
2024-01-27T07:24:43.972Z,21.20
2024-01-27T07:27:45.379Z,26.50
2024-01-27T07:30:46.596Z,20.00
2024-01-27T07:33:47.811Z,19.90
2024-01-27T07:36:49.866Z,19.70
2024-01-27T07:39:50.838Z,17.30
2024-01-27T07:42:51.957Z,27.60
2024-01-27T07:45:54.253Z,24.60
2024-01-27T07:48:55.242Z,29.30
2024-01-27T07:51:56.322Z,30.10
2024-01-27T07:54:57.209Z,23.30
2024-01-27T07:57:58.728Z,16.50
2024-01-27T08:01:00.092Z,21.00
2024-01-27T08:04:01.206Z,18.70
2024-01-27T08:07:06.749Z,23.30
2024-01-27T08:10:11.547Z,27.60
2024-01-27T08:13:12.582Z,29.20
2024-01-27T08:16:14.864Z,28.80
2024-01-27T08:19:20.649Z,18.00
2024-01-27T08:22:21.804Z,20.80
2024-01-27T08:25:22.753Z,26.90
2024-01-27T08:28:24.917Z,16.00
2024-01-27T08:31:25.952Z,15.00
2024-01-27T08:34:27.223Z,18.80
2024-01-27T08:37:28.310Z,18.90
2024-01-27T08:40:29.279Z,17.90
2024-01-27T08:43:30.176Z,19.90
2024-01-27T08:46:31.197Z,33.70
2024-01-27T08:49:32.268Z,24.30
2024-01-27T08:52:35.686Z,16.60
2024-01-27T08:55:37.956Z,31.00
2024-01-27T08:58:38.904Z,21.90
2024-01-27T09:01:39.917Z,31.50
2024-01-27T09:04:40.944Z,24.30
2024-01-27T09:07:41.931Z,24.50
2024-01-27T09:10:42.892Z,49.80
2024-01-27T09:13:45.873Z,15.50
2024-01-27T09:16:47.614Z,25.60
2024-01-27T09:19:48.926Z,29.90
2024-01-27T09:22:51.210Z,21.30
2024-01-27T09:25:52.222Z,19.10
2024-01-27T09:28:56.107Z,23.40
2024-01-27T09:31:57.198Z,50.00
2024-01-27T09:34:58.905Z,19.30
2024-01-27T09:37:59.918Z,26.50
2024-01-27T09:41:00.893Z,25.60
2024-01-27T09:44:03.424Z,32.30
2024-01-27T09:47:05.902Z,16.70
2024-01-27T09:50:11.563Z,11.60
2024-01-27T09:53:12.877Z,20.10
2024-01-27T09:56:18.476Z,13.10
2024-01-27T09:59:21.617Z,31.00
2024-01-27T10:02:25.625Z,20.80
2024-01-27T10:05:28.372Z,41.10
2024-01-27T10:08:29.367Z,48.00
2024-01-27T10:11:33.774Z,25.60
2024-01-27T10:14:41.227Z,72.50
2024-01-27T10:17:42.216Z,25.80
2024-01-27T10:20:44.278Z,42.10
2024-01-27T10:23:45.506Z,41.50
2024-01-27T10:26:48.279Z,20.00
2024-01-27T10:29:54.825Z,33.70
2024-01-27T10:32:59.656Z,65.30
2024-01-27T10:36:01.043Z,57.50
2024-01-27T10:39:02.026Z,46.30
2024-01-27T10:42:04.519Z,74.30
2024-01-27T10:45:06.096Z,17.50
2024-01-27T10:48:12.857Z,50.30
2024-01-27T10:51:19.170Z,46.70
2024-01-27T10:54:28.066Z,120.60
2024-01-27T10:57:34.161Z,35.00
2024-01-27T11:00:35.621Z,38.50
2024-01-27T11:03:40.685Z,25.00
2024-01-27T11:06:43.836Z,26.80
2024-01-27T11:09:46.005Z,20.90
2024-01-27T11:12:49.541Z,30.30
2024-01-27T11:15:59.081Z,15.40
2024-01-27T11:19:00.445Z,22.40
2024-01-27T11:22:05.296Z,17.00
2024-01-27T11:25:15.245Z,20.20
2024-01-27T11:28:17.429Z,15.40
2024-01-27T11:31:19.944Z,19.50
2024-01-27T11:34:21.501Z,17.90
2024-01-27T11:37:25.749Z,24.60
2024-01-27T11:40:26.737Z,18.50
2024-01-27T11:43:28.418Z,22.30
2024-01-27T11:46:29.582Z,26.30
2024-01-27T11:49:30.905Z,18.00
2024-01-27T11:52:31.975Z,18.90
2024-01-27T11:55:32.980Z,31.10
2024-01-27T11:58:34.201Z,16.60
2024-01-27T12:01:37.200Z,17.00
2024-01-27T12:04:40.266Z,22.40
2024-01-27T12:07:41.405Z,35.60
2024-01-27T12:10:42.364Z,33.70
2024-01-27T12:13:43.349Z,34.60
2024-01-27T12:16:45.051Z,25.30
2024-01-27T12:19:52.726Z,15.90
2024-01-27T12:23:07.131Z,14.80
2024-01-27T12:26:15.238Z,14.10
2024-01-27T12:29:16.254Z,19.50
2024-01-27T12:32:18.484Z,56.20
2024-01-27T12:35:19.661Z,21.30
2024-01-27T12:38:21.048Z,26.70
2024-01-27T12:41:22.104Z,27.90
2024-01-27T12:44:23.111Z,37.40
2024-01-27T12:47:24.219Z,14.30
2024-01-27T12:50:25.354Z,23.60
2024-01-27T12:53:26.913Z,54.40
2024-01-27T12:56:27.892Z,22.80
2024-01-27T12:59:29.135Z,42.00
2024-01-27T13:02:30.243Z,21.40
2024-01-27T13:05:31.222Z,27.40
2024-01-27T13:08:32.531Z,28.90
2024-01-27T13:11:33.792Z,28.20
2024-01-27T13:14:34.830Z,18.50
2024-01-27T13:17:35.823Z,23.80
2024-01-27T13:20:37.593Z,42.00
2024-01-27T13:23:38.643Z,35.90
2024-01-27T13:26:39.686Z,33.60
2024-01-27T13:29:40.635Z,38.10
2024-01-27T13:32:42.194Z,41.40
2024-01-27T13:35:47.083Z,29.60
2024-01-27T13:38:48.057Z,31.90
2024-01-27T13:41:49.075Z,29.20
2024-01-27T13:44:50.049Z,38.50
2024-01-27T13:47:50.999Z,24.80
2024-01-27T13:50:53.511Z,30.10
2024-01-27T13:53:54.488Z,29.10
2024-01-27T13:56:55.571Z,34.10
2024-01-27T13:59:57.201Z,28.50
2024-01-27T14:02:58.326Z,16.50
2024-01-27T14:05:59.445Z,23.10
2024-01-27T14:09:01.366Z,21.00
2024-01-27T14:12:02.444Z,20.90
2024-01-27T14:15:09.135Z,22.70
2024-01-27T14:18:14.577Z,20.60
2024-01-27T14:21:15.583Z,19.10
2024-01-27T14:24:16.595Z,25.10
2024-01-27T14:27:18.714Z,20.70
2024-01-27T14:30:19.757Z,19.30
2024-01-27T14:33:21.466Z,19.40
2024-01-27T14:36:24.100Z,20.90
2024-01-27T14:39:25.106Z,94.60
2024-01-27T14:42:26.129Z,463.40
2024-01-27T14:45:27.218Z,350.10
2024-01-27T14:48:28.448Z,111.20
2024-01-27T14:51:29.587Z,79.40
2024-01-27T14:54:30.592Z,60.30
2024-01-27T14:57:31.703Z,42.30
2024-01-27T15:00:32.820Z,62.00
2024-01-27T15:03:34.279Z,31.90
2024-01-27T15:06:35.703Z,40.20
2024-01-27T15:09:36.751Z,86.50
2024-01-27T15:12:38.217Z,77.40
2024-01-27T15:15:40.211Z,78.50
2024-01-27T15:18:45.102Z,84.40
2024-01-27T15:21:46.484Z,94.30
2024-01-27T15:24:47.475Z,63.50
2024-01-27T15:27:48.739Z,48.60
2024-01-27T15:30:50.086Z,112.20
2024-01-27T15:33:51.493Z,106.50
2024-01-27T15:36:52.738Z,98.20
2024-01-27T15:39:54.005Z,85.00
2024-01-27T15:42:56.307Z,45.30
2024-01-27T15:45:57.400Z,87.60
2024-01-27T15:48:58.514Z,51.70
2024-01-27T15:51:59.659Z,112.30
2024-01-27T15:55:00.633Z,72.60
2024-01-27T15:58:02.240Z,188.00
2024-01-27T16:01:03.539Z,100.40
2024-01-27T16:04:04.585Z,162.50
2024-01-27T16:07:05.604Z,162.70
2024-01-27T16:10:07.088Z,90.50
2024-01-27T16:13:08.158Z,140.60
2024-01-27T16:16:09.182Z,43.70
2024-01-27T16:19:10.436Z,74.20
2024-01-27T16:22:11.499Z,33.40
2024-01-27T16:25:12.431Z,67.30
2024-01-27T16:28:13.477Z,71.90
2024-01-27T16:31:15.186Z,93.90
2024-01-27T16:34:16.268Z,151.70
2024-01-27T16:37:18.447Z,85.60
2024-01-27T16:40:19.904Z,175.20
2024-01-27T16:43:20.874Z,146.70
2024-01-27T16:46:25.225Z,187.60
2024-01-27T16:49:26.553Z,71.60
2024-01-27T16:52:27.808Z,239.10
2024-01-27T16:55:28.803Z,167.60
2024-01-27T16:58:29.808Z,133.70
2024-01-27T17:01:30.747Z,230.80
2024-01-27T17:04:32.340Z,105.10
2024-01-27T17:07:33.547Z,154.20
2024-01-27T17:10:34.574Z,155.60
2024-01-27T17:13:35.540Z,73.30
2024-01-27T17:16:37.812Z,92.50
2024-01-27T17:19:38.887Z,102.90
2024-01-27T17:22:40.515Z,77.10
2024-01-27T17:25:42.645Z,55.60
2024-01-27T17:28:43.869Z,58.60
2024-01-27T17:31:47.554Z,71.50
2024-01-27T17:34:49.566Z,46.10
2024-01-27T17:37:50.571Z,66.70
2024-01-27T17:40:52.875Z,59.40
2024-01-27T17:43:53.831Z,49.30
2024-01-27T17:46:54.790Z,90.80
2024-01-27T17:49:56.211Z,84.70
2024-01-27T17:52:57.294Z,68.20
2024-01-27T17:56:00.985Z,68.30
2024-01-27T17:59:02.021Z,62.30
2024-01-27T18:02:03.115Z,48.50
2024-01-27T18:05:04.304Z,89.40
2024-01-27T18:08:05.954Z,82.50
2024-01-27T18:11:06.976Z,79.50
2024-01-27T18:14:07.975Z,45.30
2024-01-27T18:17:09.149Z,71.10
2024-01-27T18:20:11.310Z,51.00
2024-01-27T18:23:12.394Z,46.20
2024-01-27T18:26:13.478Z,62.10
2024-01-27T18:29:14.474Z,87.60
2024-01-27T18:32:15.488Z,91.20
2024-01-27T18:35:16.660Z,96.80
2024-01-27T18:38:17.839Z,286.00
2024-01-27T18:41:18.860Z,76.30
2024-01-27T18:44:20.842Z,126.80
2024-01-27T18:47:24.993Z,137.10
2024-01-27T18:50:26.532Z,138.90
2024-01-27T18:53:28.139Z,113.50
2024-01-27T18:56:29.192Z,121.90
2024-01-27T18:59:30.142Z,110.80
2024-01-27T19:02:31.609Z,115.50
2024-01-27T19:05:34.123Z,73.80
2024-01-27T19:08:35.416Z,51.70
2024-01-27T19:11:36.589Z,40.60
2024-01-27T19:14:38.157Z,73.00
2024-01-27T19:17:39.228Z,121.20
2024-01-27T19:20:40.331Z,49.50
2024-01-27T19:23:41.285Z,94.00
2024-01-27T19:26:42.597Z,48.80
2024-01-27T19:29:44.099Z,56.70
2024-01-27T19:32:45.592Z,66.30
2024-01-27T19:35:48.347Z,46.30
2024-01-27T19:38:49.323Z,39.40
2024-01-27T19:41:51.812Z,33.90
2024-01-27T19:44:52.761Z,19.00
2024-01-27T19:47:53.829Z,31.00
2024-01-27T19:50:55.379Z,47.00
2024-01-27T19:53:56.389Z,131.00
2024-01-27T19:56:57.356Z,77.00
2024-01-27T19:59:58.665Z,113.30
2024-01-27T20:03:01.653Z,34.70
2024-01-27T20:06:04.810Z,89.40
2024-01-27T20:09:12.440Z,109.00
2024-01-27T20:12:17.508Z,121.00
2024-01-27T20:15:18.814Z,113.70
2024-01-27T20:18:20.485Z,83.70
2024-01-27T20:21:22.869Z,144.70
2024-01-27T20:24:23.854Z,147.60
2024-01-27T20:27:25.065Z,37.10
2024-01-27T20:30:26.073Z,37.10
2024-01-27T20:33:31.645Z,63.30
2024-01-27T20:36:38.629Z,169.10
2024-01-27T20:39:44.417Z,94.30
2024-01-27T20:42:45.555Z,61.10
2024-01-27T20:45:46.577Z,44.90
2024-01-27T20:48:47.841Z,67.60
2024-01-27T20:51:51.503Z,33.50
2024-01-27T20:54:54.529Z,68.10
2024-01-27T20:57:55.847Z,45.20
2024-01-27T21:00:56.916Z,35.60
2024-01-27T23:48:19.640Z,40.70
2024-01-27T23:51:23.411Z,63.50
2024-01-27T23:54:24.535Z,33.00
2024-01-27T23:57:25.545Z,26.00
